createdAt,value
2018-05-24T00:03:10.714Z,80.00
2018-05-24T00:08:05.060Z,79.50
2018-05-24T00:12:59.442Z,78.70
2018-05-24T00:17:53.936Z,77.70
2018-05-24T00:22:48.414Z,76.90
2018-05-24T00:27:42.751Z,76.30
2018-05-24T00:32:37.118Z,76.00
2018-05-24T00:37:31.534Z,75.40
2018-05-24T00:42:25.876Z,75.40
2018-05-24T00:47:20.392Z,75.30
2018-05-24T00:52:14.749Z,75.30
2018-05-24T00:57:09.264Z,75.60
2018-05-24T01:02:03.605Z,76.30
2018-05-24T01:06:59.081Z,77.70
2018-05-24T01:11:53.435Z,77.70
2018-05-24T01:16:48.538Z,78.50
2018-05-24T01:21:42.910Z,78.50
2018-05-24T01:26:37.026Z,78.40
2018-05-24T01:31:31.516Z,78.60
2018-05-24T01:36:43.098Z,79.20
2018-05-24T01:41:37.452Z,79.70
2018-05-24T01:46:31.822Z,79.80
2018-05-24T01:51:26.158Z,80.40
2018-05-24T01:56:20.517Z,81.10
2018-05-24T02:01:14.894Z,81.50
2018-05-24T02:06:09.996Z,83.00
2018-05-24T02:11:04.374Z,83.00
2018-05-24T02:15:58.720Z,83.80
2018-05-24T02:20:54.056Z,86.30
2018-05-24T02:25:48.568Z,86.30
2018-05-24T02:30:42.947Z,87.10
2018-05-24T02:35:38.082Z,87.70
2018-05-24T02:40:32.529Z,87.70
2018-05-24T02:45:26.867Z,88.70
2018-05-24T02:50:22.158Z,86.30
2018-05-24T02:55:16.510Z,86.30
2018-05-24T03:00:12.038Z,85.80
2018-05-24T03:05:07.159Z,86.30
2018-05-24T03:10:02.308Z,86.00
2018-05-24T03:14:56.660Z,86.00
2018-05-24T03:19:51.079Z,85.70
2018-05-24T03:24:46.203Z,86.80
2018-05-24T03:29:41.313Z,87.90
2018-05-24T03:34:36.420Z,89.20
2018-05-24T03:39:30.776Z,89.10
2018-05-24T03:44:25.354Z,90.00
2018-05-24T03:49:20.220Z,90.90
2018-05-24T03:54:14.601Z,90.90
2018-05-24T04:15:08.190Z,91.90
2018-05-24T04:20:02.534Z,91.60
2018-05-24T04:24:56.893Z,92.00
2018-05-24T04:29:51.250Z,92.30
2018-05-24T04:34:47.385Z,93.00
2018-05-24T04:39:41.715Z,93.00
2018-05-24T04:44:36.896Z,93.60
2018-05-24T04:49:31.297Z,93.50
2018-05-24T04:54:26.242Z,93.70
2018-05-24T04:59:21.361Z,93.60
2018-05-24T05:04:15.878Z,93.60
2018-05-24T05:09:10.981Z,92.50
2018-05-24T05:14:05.989Z,92.50
2018-05-24T05:19:00.421Z,92.10
2018-05-24T05:23:55.702Z,91.10
2018-05-24T05:28:50.053Z,91.00
2018-05-24T05:33:45.180Z,90.40
2018-05-24T05:38:39.521Z,90.30
2018-05-24T05:43:33.892Z,89.20
2018-05-24T05:48:28.130Z,88.40
2018-05-24T05:53:22.818Z,87.40
2018-05-24T05:58:17.340Z,86.40
2018-05-24T06:03:13.804Z,85.00
2018-05-24T06:08:08.929Z,83.30
2018-05-24T06:13:03.400Z,81.50
2018-05-24T06:17:57.927Z,80.10
2018-05-24T06:22:52.274Z,79.80
2018-05-24T06:27:47.428Z,79.60
2018-05-24T06:32:41.964Z,79.40
2018-05-24T06:37:36.324Z,78.70
2018-05-24T06:42:30.683Z,78.10
2018-05-24T06:47:25.146Z,78.30
2018-05-24T06:52:19.490Z,78.30
2018-05-24T06:57:13.849Z,76.70
2018-05-24T07:02:08.430Z,76.10
2018-05-24T07:07:02.906Z,76.40
2018-05-24T07:11:58.163Z,75.20
2018-05-24T07:16:52.816Z,75.30
2018-05-24T07:21:47.158Z,70.60
2018-05-24T07:26:42.274Z,65.70
2018-05-24T07:31:37.703Z,62.00
2018-05-24T07:36:32.831Z,58.70
2018-05-24T07:41:29.732Z,53.20
2018-05-24T07:46:24.844Z,53.10
2018-05-24T07:51:19.463Z,50.30
2018-05-24T07:56:15.223Z,51.30
2018-05-24T08:01:09.587Z,51.20
2018-05-24T08:06:04.074Z,52.60
2018-05-24T08:10:58.426Z,53.80
2018-05-24T08:15:52.830Z,53.80
2018-05-24T08:20:47.972Z,52.50
2018-05-24T08:25:42.676Z,52.40
2018-05-24T08:30:37.042Z,50.50
2018-05-24T08:35:32.494Z,37.50
2018-05-24T08:40:27.508Z,37.40
2018-05-24T08:45:22.157Z,30.10
2018-05-24T08:50:16.777Z,25.50
2018-05-24T08:55:11.411Z,22.40
2018-05-24T09:00:06.806Z,19.30
2018-05-24T09:05:01.694Z,19.20
2018-05-24T09:09:56.500Z,18.30
2018-05-24T09:14:51.123Z,18.20
2018-05-24T09:19:45.765Z,17.90
2018-05-24T09:24:40.393Z,16.80
2018-05-24T09:29:35.791Z,15.80
2018-05-24T09:34:30.600Z,15.80
2018-05-24T09:39:25.231Z,17.30
2018-05-24T09:44:20.635Z,21.80
2018-05-24T09:49:15.499Z,21.80
2018-05-24T09:54:10.139Z,24.80
2018-05-24T09:59:04.797Z,28.90
2018-05-24T10:04:00.206Z,37.30
2018-05-24T10:08:54.841Z,37.20
2018-05-24T10:13:49.644Z,39.30
2018-05-24T10:18:45.039Z,44.40
2018-05-24T10:23:39.860Z,44.40
2018-05-24T10:28:34.762Z,46.00
2018-05-24T10:33:29.517Z,46.60
2018-05-24T10:38:24.912Z,49.00
2018-05-24T10:43:19.663Z,49.00
2018-05-24T10:48:14.026Z,51.20
2018-05-24T10:53:09.385Z,51.10
2018-05-24T10:58:03.754Z,51.10
2018-05-24T11:02:58.209Z,53.00
2018-05-24T11:07:52.738Z,54.10
2018-05-24T11:12:47.848Z,56.00
2018-05-24T11:17:42.190Z,56.00
2018-05-24T11:22:36.582Z,57.60
2018-05-24T11:27:31.721Z,59.50
2018-05-24T11:32:26.148Z,59.60
2018-05-24T11:37:20.543Z,59.10
2018-05-24T11:42:15.925Z,60.60
2018-05-24T11:47:11.072Z,62.00
2018-05-24T11:52:05.515Z,62.00
2018-05-24T11:57:00.099Z,62.40
2018-05-24T12:01:54.551Z,63.50
2018-05-24T12:06:48.990Z,64.30
2018-05-24T12:11:43.412Z,65.00
2018-05-24T12:16:37.760Z,64.60
2018-05-24T12:21:32.136Z,65.80
2018-05-24T12:26:26.623Z,66.50
2018-05-24T12:31:21.073Z,65.60
2018-05-24T12:36:16.308Z,63.90
2018-05-24T12:41:11.471Z,63.80
2018-05-24T12:46:05.824Z,63.80
2018-05-24T12:51:00.278Z,64.00
2018-05-24T12:55:54.810Z,63.20
2018-05-24T13:00:49.173Z,62.30
2018-05-24T13:05:43.526Z,59.90
2018-05-24T13:10:37.878Z,59.20
2018-05-24T13:15:32.290Z,59.00
2018-05-24T13:20:26.669Z,59.30
2018-05-24T13:25:21.018Z,60.10
2018-05-24T13:30:15.376Z,61.50
2018-05-24T13:35:09.757Z,60.50
2018-05-24T13:40:04.863Z,59.60
2018-05-24T13:44:59.425Z,59.60
2018-05-24T13:49:53.769Z,59.20
2018-05-24T13:54:48.142Z,60.80
2018-05-24T13:59:42.284Z,61.50
2018-05-24T14:04:37.385Z,61.10
2018-05-24T14:09:31.790Z,61.00
2018-05-24T14:14:26.152Z,61.60
2018-05-24T14:19:20.500Z,62.80
2018-05-24T14:24:15.078Z,63.80
2018-05-24T14:29:09.417Z,64.40
2018-05-24T14:34:03.875Z,66.20
2018-05-24T14:38:58.230Z,68.50
2018-05-24T14:43:53.534Z,79.70
2018-05-24T14:48:47.904Z,79.70
2018-05-24T14:53:42.271Z,83.60
2018-05-24T14:58:36.847Z,82.10
2018-05-24T15:03:31.204Z,83.90
2018-05-24T15:08:25.561Z,83.00
2018-05-24T15:13:37.825Z,83.90
2018-05-24T15:18:32.484Z,83.90
2018-05-24T15:23:27.415Z,82.70
2018-05-24T15:28:22.544Z,79.70
2018-05-24T15:33:17.713Z,78.10
2018-05-24T15:38:12.196Z,78.10
2018-05-24T15:43:06.553Z,78.10
2018-05-24T15:48:00.922Z,77.20
2018-05-24T15:52:55.285Z,76.00
2018-05-24T15:57:49.660Z,76.90
2018-05-24T16:02:44.160Z,76.80
2018-05-24T16:07:38.650Z,76.00
2018-05-24T16:12:33.223Z,76.70
2018-05-24T16:17:28.522Z,77.00
2018-05-24T16:22:23.113Z,77.00
2018-05-24T16:27:17.474Z,77.30
2018-05-24T16:32:12.091Z,78.20
2018-05-24T16:37:06.219Z,79.50
2018-05-24T16:42:00.629Z,80.30
2018-05-24T16:46:55.113Z,80.30
2018-05-24T16:51:49.451Z,79.80
2018-05-24T16:56:44.020Z,79.50
2018-05-24T17:01:38.475Z,79.80
2018-05-24T17:06:33.421Z,79.70
2018-05-24T17:11:28.152Z,79.70
2018-05-24T17:16:22.493Z,80.60
2018-05-24T17:21:16.854Z,80.60
2018-05-24T17:26:11.209Z,81.00
2018-05-24T17:31:06.326Z,82.80
2018-05-24T17:36:01.199Z,82.80
2018-05-24T17:57:23.762Z,86.80
2018-05-24T18:02:23.792Z,86.80
2018-05-24T18:12:40.562Z,88.20
2018-05-24T18:17:35.007Z,88.60
2018-05-24T18:22:29.574Z,89.10
2018-05-24T18:32:47.318Z,89.00
2018-05-24T18:37:41.717Z,88.90
2018-05-24T18:42:36.254Z,88.90
2018-05-24T18:47:31.492Z,90.50
2018-05-24T18:52:26.966Z,91.00
2018-05-24T19:13:29.037Z,92.10
2018-05-24T19:18:33.526Z,92.50
2018-05-24T19:23:27.926Z,93.10
2018-05-24T19:28:22.275Z,93.20
2018-05-24T19:33:17.442Z,94.10
2018-05-24T19:38:11.813Z,94.00
2018-05-24T19:43:06.935Z,95.00
2018-05-24T19:48:02.063Z,95.70
2018-05-24T19:52:56.953Z,95.30
2018-05-24T19:57:53.530Z,96.00
2018-05-24T20:02:48.415Z,96.00
2018-05-24T20:07:42.836Z,96.40
2018-05-24T20:12:38.881Z,96.60
2018-05-24T20:17:33.633Z,96.60
2018-05-24T20:22:28.183Z,97.10
2018-05-24T20:27:23.311Z,97.40
2018-05-24T20:32:18.778Z,97.70
2018-05-24T20:37:13.126Z,97.70
2018-05-24T20:42:07.588Z,98.10
2018-05-24T20:47:01.958Z,98.30
2018-05-24T20:51:57.216Z,99.00
2018-05-24T20:56:51.923Z,99.00
2018-05-24T21:01:46.684Z,99.50
2018-05-24T21:06:41.642Z,99.80
2018-05-24T21:11:36.289Z,99.90
2018-05-24T21:16:31.169Z,99.90
2018-05-24T21:21:26.125Z,99.90
2018-05-24T21:26:21.736Z,99.90
2018-05-24T21:31:16.604Z,99.90
2018-05-24T21:36:12.569Z,99.90
2018-05-24T21:41:07.393Z,99.90
2018-05-24T21:46:03.621Z,99.90
2018-05-24T21:50:59.278Z,99.90
2018-05-24T21:55:53.856Z,99.90
2018-05-24T22:00:51.216Z,99.90
2018-05-24T22:05:45.599Z,99.90
2018-05-24T22:10:39.973Z,99.90
2018-05-24T22:15:34.489Z,99.90
2018-05-24T22:20:29.290Z,99.90
2018-05-24T22:25:23.642Z,99.90
2018-05-24T22:30:18.800Z,99.90
2018-05-24T22:35:13.208Z,99.90
2018-05-24T22:40:07.562Z,99.90
2018-05-24T22:45:02.889Z,99.90
2018-05-24T22:49:57.998Z,99.90
2018-05-24T22:54:52.693Z,99.90
2018-05-24T22:59:47.207Z,99.90
2018-05-24T23:04:41.754Z,99.90
2018-05-24T23:09:36.132Z,99.90
2018-05-24T23:14:31.250Z,99.90
2018-05-24T23:19:26.546Z,99.90
2018-05-24T23:24:20.934Z,99.90
2018-05-24T23:29:15.397Z,99.90
2018-05-24T23:34:09.760Z,99.90
2018-05-24T23:39:03.878Z,99.90
2018-05-24T23:43:59.026Z,99.90
2018-05-24T23:48:54.311Z,99.90
2018-05-24T23:53:49.595Z,99.90
2018-05-24T23:58:44.252Z,99.90
